sensor_id;sensor_type;location;lat;lon;timestamp;P1;durP1;ratioP1;P2;durP2;ratioP2
38935;SDS011;25541;47.458;9.644;2022-12-11T05:03:07;15.50;;;6.78;;
38935;SDS011;25541;47.458;9.644;2022-12-11T05:05:33;16.00;;;6.82;;
38935;SDS011;25541;47.458;9.644;2022-12-11T05:07:58;17.13;;;7.03;;
38935;SDS011;25541;47.458;9.644;2022-12-11T05:10:24;15.70;;;6.85;;
38935;SDS011;25541;47.458;9.644;2022-12-11T05:12:50;16.10;;;6.75;;
38935;SDS011;25541;47.458;9.644;2022-12-11T05:15:15;16.65;;;8.18;;
38935;SDS011;25541;47.458;9.644;2022-12-11T05:17:41;15.52;;;6.47;;
38935;SDS011;25541;47.458;9.644;2022-12-11T05:20:07;17.35;;;7.68;;
38935;SDS011;25541;47.458;9.644;2022-12-11T05:22:33;18.30;;;7.88;;
38935;SDS011;25541;47.458;9.644;2022-12-11T05:24:59;18.50;;;8.27;;
38935;SDS011;25541;47.458;9.644;2022-12-11T05:27:25;19.73;;;8.30;;
38935;SDS011;25541;47.458;9.644;2022-12-11T05:29:51;17.20;;;8.18;;
38935;SDS011;25541;47.458;9.644;2022-12-11T05:32:16;22.60;;;8.88;;
38935;SDS011;25541;47.458;9.644;2022-12-11T05:34:42;23.52;;;10.02;;
38935;SDS011;25541;47.458;9.644;2022-12-11T05:37:08;19.08;;;7.97;;
38935;SDS011;25541;47.458;9.644;2022-12-11T05:39:34;17.00;;;7.50;;
38935;SDS011;25541;47.458;9.644;2022-12-11T05:42:00;20.45;;;7.95;;
38935;SDS011;25541;47.458;9.644;2022-12-11T05:44:25;16.48;;;7.43;;
38935;SDS011;25541;47.458;9.644;2022-12-11T05:46:51;16.42;;;7.28;;
38935;SDS011;25541;47.458;9.644;2022-12-11T05:49:17;16.33;;;7.47;;
38935;SDS011;25541;47.458;9.644;2022-12-11T05:51:43;16.55;;;7.25;;
38935;SDS011;25541;47.458;9.644;2022-12-11T05:54:09;16.10;;;6.53;;
38935;SDS011;25541;47.458;9.644;2022-12-11T05:56:35;14.65;;;7.10;;
38935;SDS011;25541;47.458;9.644;2022-12-11T05:59:01;15.63;;;6.90;;
38935;SDS011;25541;47.458;9.644;2022-12-11T06:01:29;16.10;;;6.65;;
38935;SDS011;25541;47.458;9.644;2022-12-11T06:04:03;15.35;;;6.25;;
38935;SDS011;25541;47.458;9.644;2022-12-11T06:06:30;14.75;;;6.65;;
38935;SDS011;25541;47.458;9.644;2022-12-11T06:08:56;15.65;;;6.82;;
38935;SDS011;25541;47.458;9.644;2022-12-11T06:11:23;16.85;;;7.05;;
38935;SDS011;25541;47.458;9.644;2022-12-11T06:13:50;15.73;;;6.53;;
38935;SDS011;25541;47.458;9.644;2022-12-11T06:16:16;16.42;;;6.88;;
38935;SDS011;25541;47.458;9.644;2022-12-11T06:18:43;15.25;;;6.60;;
38935;SDS011;25541;47.458;9.644;2022-12-11T06:21:16;18.95;;;7.40;;
38935;SDS011;25541;47.458;9.644;2022-12-11T06:23:45;15.85;;;6.95;;
38935;SDS011;25541;47.458;9.644;2022-12-11T06:26:12;13.20;;;6.15;;
38935;SDS011;25541;47.458;9.644;2022-12-11T06:28:38;13.77;;;5.97;;
38935;SDS011;25541;47.458;9.644;2022-12-11T06:31:04;15.57;;;6.63;;
38935;SDS011;25541;47.458;9.644;2022-12-11T06:33:30;15.52;;;6.47;;
38935;SDS011;25541;47.458;9.644;2022-12-11T06:36:00;15.77;;;6.53;;
38935;SDS011;25541;47.458;9.644;2022-12-11T06:38:27;15.75;;;6.68;;
38935;SDS011;25541;47.458;9.644;2022-12-11T06:40:53;15.77;;;6.88;;
38935;SDS011;25541;47.458;9.644;2022-12-11T06:43:20;15.25;;;6.78;;
38935;SDS011;25541;47.458;9.644;2022-12-11T06:45:46;17.63;;;7.95;;
38935;SDS011;25541;47.458;9.644;2022-12-11T06:48:12;17.17;;;6.57;;
38935;SDS011;25541;47.458;9.644;2022-12-11T06:50:38;14.05;;;6.35;;
38935;SDS011;25541;47.458;9.644;2022-12-11T06:53:03;13.48;;;5.65;;
38935;SDS011;25541;47.458;9.644;2022-12-11T06:55:29;16.80;;;6.65;;
38935;SDS011;25541;47.458;9.644;2022-12-11T06:57:55;13.98;;;5.60;;
38935;SDS011;25541;47.458;9.644;2022-12-11T07:00:20;11.07;;;4.55;;
38935;SDS011;25541;47.458;9.644;2022-12-11T07:02:46;11.95;;;4.82;;
38935;SDS011;25541;47.458;9.644;2022-12-11T07:05:11;11.18;;;5.20;;
38935;SDS011;25541;47.458;9.644;2022-12-11T07:07:37;12.60;;;5.15;;
38935;SDS011;25541;47.458;9.644;2022-12-11T07:10:03;11.10;;;5.10;;
38935;SDS011;25541;47.458;9.644;2022-12-11T07:12:29;11.45;;;4.93;;
38935;SDS011;25541;47.458;9.644;2022-12-11T07:14:55;13.05;;;5.43;;
38935;SDS011;25541;47.458;9.644;2022-12-11T07:17:20;10.80;;;4.75;;
38935;SDS011;25541;47.458;9.644;2022-12-11T07:19:46;11.23;;;4.97;;
38935;SDS011;25541;47.458;9.644;2022-12-11T07:22:12;12.70;;;5.43;;
38935;SDS011;25541;47.458;9.644;2022-12-11T07:24:37;13.32;;;5.38;;
38935;SDS011;25541;47.458;9.644;2022-12-11T07:27:03;11.40;;;5.20;;
38935;SDS011;25541;47.458;9.644;2022-12-11T07:29:29;12.15;;;5.50;;
38935;SDS011;25541;47.458;9.644;2022-12-11T07:31:54;11.52;;;4.93;;
38935;SDS011;25541;47.458;9.644;2022-12-11T07:34:20;13.15;;;5.20;;
38935;SDS011;25541;47.458;9.644;2022-12-11T07:36:46;11.48;;;5.30;;
38935;SDS011;25541;47.458;9.644;2022-12-11T07:39:12;14.27;;;5.93;;
38935;SDS011;25541;47.458;9.644;2022-12-11T07:41:37;14.77;;;5.50;;
38935;SDS011;25541;47.458;9.644;2022-12-11T07:44:04;13.15;;;5.75;;
38935;SDS011;25541;47.458;9.644;2022-12-11T07:46:30;12.23;;;5.47;;
38935;SDS011;25541;47.458;9.644;2022-12-11T07:48:57;14.82;;;6.20;;
38935;SDS011;25541;47.458;9.644;2022-12-11T07:51:29;12.65;;;5.82;;
38935;SDS011;25541;47.458;9.644;2022-12-11T07:53:57;15.38;;;6.80;;
38935;SDS011;25541;47.458;9.644;2022-12-11T07:56:25;13.38;;;6.45;;
38935;SDS011;25541;47.458;9.644;2022-12-11T07:58:52;14.45;;;6.15;;
38935;SDS011;25541;47.458;9.644;2022-12-11T08:01:19;15.27;;;6.43;;
38935;SDS011;25541;47.458;9.644;2022-12-11T08:03:46;13.48;;;6.05;;
38935;SDS011;25541;47.458;9.644;2022-12-11T08:06:13;14.95;;;6.32;;
38935;SDS011;25541;47.458;9.644;2022-12-11T08:08:39;30.10;;;11.10;;
38935;SDS011;25541;47.458;9.644;2022-12-11T08:11:06;15.55;;;7.15;;
38935;SDS011;25541;47.458;9.644;2022-12-11T08:13:34;16.08;;;6.72;;
38935;SDS011;25541;47.458;9.644;2022-12-11T08:16:07;14.63;;;6.65;;
38935;SDS011;25541;47.458;9.644;2022-12-11T08:18:34;13.45;;;6.25;;
38935;SDS011;25541;47.458;9.644;2022-12-11T08:21:08;13.60;;;6.50;;
38935;SDS011;25541;47.458;9.644;2022-12-11T08:23:36;13.43;;;6.22;;
38935;SDS011;25541;47.458;9.644;2022-12-11T08:26:03;13.30;;;5.88;;
38935;SDS011;25541;47.458;9.644;2022-12-11T08:28:30;14.05;;;6.25;;
38935;SDS011;25541;47.458;9.644;2022-12-11T08:30:56;14.57;;;7.00;;
38935;SDS011;25541;47.458;9.644;2022-12-11T08:33:22;13.63;;;7.03;;
38935;SDS011;25541;47.458;9.644;2022-12-11T08:35:47;13.85;;;6.60;;
38935;SDS011;25541;47.458;9.644;2022-12-11T08:38:13;13.82;;;6.63;;
38935;SDS011;25541;47.458;9.644;2022-12-11T08:40:39;13.13;;;6.60;;
38935;SDS011;25541;47.458;9.644;2022-12-11T08:43:05;12.80;;;5.97;;
38935;SDS011;25541;47.458;9.644;2022-12-11T08:45:30;13.35;;;6.15;;
38935;SDS011;25541;47.458;9.644;2022-12-11T08:47:57;13.23;;;6.30;;
38935;SDS011;25541;47.458;9.644;2022-12-11T08:50:23;12.73;;;6.38;;
38935;SDS011;25541;47.458;9.644;2022-12-11T08:52:49;12.15;;;6.00;;
38935;SDS011;25541;47.458;9.644;2022-12-11T08:55:15;13.75;;;6.22;;
38935;SDS011;25541;47.458;9.644;2022-12-11T08:57:41;12.77;;;6.18;;
38935;SDS011;25541;47.458;9.644;2022-12-11T09:00:07;14.45;;;6.18;;
38935;SDS011;25541;47.458;9.644;2022-12-11T09:02:36;14.10;;;6.60;;
38935;SDS011;25541;47.458;9.644;2022-12-11T09:05:02;13.50;;;6.95;;
38935;SDS011;25541;47.458;9.644;2022-12-11T09:07:31;14.93;;;7.00;;
38935;SDS011;25541;47.458;9.644;2022-12-11T09:09:58;15.82;;;7.68;;
38935;SDS011;25541;47.458;9.644;2022-12-11T09:12:23;12.95;;;6.40;;
38935;SDS011;25541;47.458;9.644;2022-12-11T09:14:49;13.95;;;6.93;;
38935;SDS011;25541;47.458;9.644;2022-12-11T09:17:15;21.05;;;9.85;;
38935;SDS011;25541;47.458;9.644;2022-12-11T09:19:40;17.45;;;9.07;;
38935;SDS011;25541;47.458;9.644;2022-12-11T09:22:06;18.38;;;7.18;;
38935;SDS011;25541;47.458;9.644;2022-12-11T09:24:35;26.77;;;14.35;;
38935;SDS011;25541;47.458;9.644;2022-12-11T09:27:01;16.90;;;7.72;;
38935;SDS011;25541;47.458;9.644;2022-12-11T09:29:27;15.23;;;7.60;;
38935;SDS011;25541;47.458;9.644;2022-12-11T09:31:53;24.33;;;11.35;;
38935;SDS011;25541;47.458;9.644;2022-12-11T09:34:19;17.63;;;7.97;;
38935;SDS011;25541;47.458;9.644;2022-12-11T09:36:45;14.05;;;7.82;;
38935;SDS011;25541;47.458;9.644;2022-12-11T09:39:11;15.40;;;6.90;;
38935;SDS011;25541;47.458;9.644;2022-12-11T09:41:39;14.88;;;7.85;;
38935;SDS011;25541;47.458;9.644;2022-12-11T09:46:39;13.27;;;6.20;;
38935;SDS011;25541;47.458;9.644;2022-12-11T09:49:10;10.95;;;5.38;;
38935;SDS011;25541;47.458;9.644;2022-12-11T09:51:50;10.88;;;5.80;;
38935;SDS011;25541;47.458;9.644;2022-12-11T09:54:18;9.48;;;4.85;;
38935;SDS011;25541;47.458;9.644;2022-12-11T09:56:45;9.68;;;5.18;;
38935;SDS011;25541;47.458;9.644;2022-12-11T10:14:16;8.77;;;4.45;;
38935;SDS011;25541;47.458;9.644;2022-12-11T10:16:49;8.27;;;3.85;;
38935;SDS011;25541;47.458;9.644;2022-12-11T10:19:20;8.73;;;4.05;;
38935;SDS011;25541;47.458;9.644;2022-12-11T10:27:49;8.35;;;3.50;;
38935;SDS011;25541;47.458;9.644;2022-12-11T10:32:41;8.85;;;3.88;;
38935;SDS011;25541;47.458;9.644;2022-12-11T10:35:49;8.07;;;4.05;;
38935;SDS011;25541;47.458;9.644;2022-12-11T10:40:43;7.22;;;3.30;;
38935;SDS011;25541;47.458;9.644;2022-12-11T10:43:13;8.38;;;3.65;;
38935;SDS011;25541;47.458;9.644;2022-12-11T10:45:48;7.68;;;3.50;;
38935;SDS011;25541;47.458;9.644;2022-12-11T10:48:14;8.52;;;3.40;;
38935;SDS011;25541;47.458;9.644;2022-12-11T10:50:40;7.72;;;3.40;;
38935;SDS011;25541;47.458;9.644;2022-12-11T10:53:18;7.75;;;3.85;;
38935;SDS011;25541;47.458;9.644;2022-12-11T10:55:45;7.78;;;3.40;;
38935;SDS011;25541;47.458;9.644;2022-12-11T10:58:17;8.80;;;3.85;;
38935;SDS011;25541;47.458;9.644;2022-12-11T11:00:45;9.65;;;4.38;;
38935;SDS011;25541;47.458;9.644;2022-12-11T11:03:34;9.13;;;3.50;;
38935;SDS011;25541;47.458;9.644;2022-12-11T11:08:40;8.40;;;3.88;;
38935;SDS011;25541;47.458;9.644;2022-12-11T11:11:48;8.50;;;3.83;;
38935;SDS011;25541;47.458;9.644;2022-12-11T11:16:45;9.55;;;4.40;;
38935;SDS011;25541;47.458;9.644;2022-12-11T11:19:45;9.68;;;4.22;;
38935;SDS011;25541;47.458;9.644;2022-12-11T11:22:06;7.60;;;3.50;;
38935;SDS011;25541;47.458;9.644;2022-12-11T11:24:43;8.80;;;3.65;;
38935;SDS011;25541;47.458;9.644;2022-12-11T11:30:17;9.20;;;3.78;;
38935;SDS011;25541;47.458;9.644;2022-12-11T11:32:49;8.60;;;4.10;;
38935;SDS011;25541;47.458;9.644;2022-12-11T11:35:19;9.63;;;4.97;;
38935;SDS011;25541;47.458;9.644;2022-12-11T11:37:56;25.13;;;9.07;;
38935;SDS011;25541;47.458;9.644;2022-12-11T11:40:34;10.10;;;4.38;;
38935;SDS011;25541;47.458;9.644;2022-12-11T11:51:45;10.20;;;4.50;;
38935;SDS011;25541;47.458;9.644;2022-12-11T11:54:34;12.27;;;5.68;;
38935;SDS011;25541;47.458;9.644;2022-12-11T11:56:58;12.25;;;5.35;;
38935;SDS011;25541;47.458;9.644;2022-12-11T11:59:31;11.50;;;5.03;;
38935;SDS011;25541;47.458;9.644;2022-12-11T12:02:08;11.82;;;5.30;;
38935;SDS011;25541;47.458;9.644;2022-12-11T12:04:40;11.63;;;4.85;;
38935;SDS011;25541;47.458;9.644;2022-12-11T12:12:53;11.73;;;5.53;;
38935;SDS011;25541;47.458;9.644;2022-12-11T12:21:07;10.85;;;5.05;;
38935;SDS011;25541;47.458;9.644;2022-12-11T12:23:51;10.48;;;4.75;;
38935;SDS011;25541;47.458;9.644;2022-12-11T12:27:12;10.93;;;5.10;;
38935;SDS011;25541;47.458;9.644;2022-12-11T12:29:57;10.82;;;4.68;;
38935;SDS011;25541;47.458;9.644;2022-12-11T12:37:58;11.30;;;4.85;;
38935;SDS011;25541;47.458;9.644;2022-12-11T12:40:55;12.27;;;4.85;;
38935;SDS011;25541;47.458;9.644;2022-12-11T12:46:31;11.00;;;4.90;;
38935;SDS011;25541;47.458;9.644;2022-12-11T12:49:37;8.50;;;4.13;;
38935;SDS011;25541;47.458;9.644;2022-12-11T12:52:14;10.05;;;4.35;;
38935;SDS011;25541;47.458;9.644;2022-12-11T12:54:44;11.57;;;4.60;;
38935;SDS011;25541;47.458;9.644;2022-12-11T12:57:31;11.63;;;4.60;;
38935;SDS011;25541;47.458;9.644;2022-12-11T12:59:58;10.38;;;4.63;;
38935;SDS011;25541;47.458;9.644;2022-12-11T13:02:24;12.35;;;4.50;;
38935;SDS011;25541;47.458;9.644;2022-12-11T13:05:02;10.32;;;4.57;;
38935;SDS011;25541;47.458;9.644;2022-12-11T13:07:47;9.40;;;4.57;;
38935;SDS011;25541;47.458;9.644;2022-12-11T13:12:56;9.75;;;4.45;;
38935;SDS011;25541;47.458;9.644;2022-12-11T13:20:58;9.35;;;4.63;;
38935;SDS011;25541;47.458;9.644;2022-12-11T13:25:54;7.80;;;3.47;;
38935;SDS011;25541;47.458;9.644;2022-12-11T13:28:32;9.88;;;4.47;;
38935;SDS011;25541;47.458;9.644;2022-12-11T13:33:51;8.57;;;4.40;;
38935;SDS011;25541;47.458;9.644;2022-12-11T13:38:54;10.15;;;3.95;;
38935;SDS011;25541;47.458;9.644;2022-12-11T13:41:22;10.27;;;4.35;;
38935;SDS011;25541;47.458;9.644;2022-12-11T13:43:48;10.35;;;4.65;;
38935;SDS011;25541;47.458;9.644;2022-12-11T13:46:18;11.43;;;4.35;;
38935;SDS011;25541;47.458;9.644;2022-12-11T13:48:51;9.77;;;4.38;;
38935;SDS011;25541;47.458;9.644;2022-12-11T13:53:48;10.13;;;4.25;;
38935;SDS011;25541;47.458;9.644;2022-12-11T13:56:27;8.63;;;3.83;;
38935;SDS011;25541;47.458;9.644;2022-12-11T13:58:52;9.98;;;4.55;;
38935;SDS011;25541;47.458;9.644;2022-12-11T14:01:22;9.13;;;3.72;;
38935;SDS011;25541;47.458;9.644;2022-12-11T14:06:33;9.73;;;4.22;;
38935;SDS011;25541;47.458;9.644;2022-12-11T14:09:01;10.35;;;4.43;;
38935;SDS011;25541;47.458;9.644;2022-12-11T14:11:33;16.80;;;6.40;;
38935;SDS011;25541;47.458;9.644;2022-12-11T14:14:02;15.98;;;5.95;;
38935;SDS011;25541;47.458;9.644;2022-12-11T14:16:30;7.75;;;3.13;;
38935;SDS011;25541;47.458;9.644;2022-12-11T14:19:00;8.43;;;3.60;;
38935;SDS011;25541;47.458;9.644;2022-12-11T14:21:29;10.13;;;4.25;;
38935;SDS011;25541;47.458;9.644;2022-12-11T14:23:59;11.77;;;4.65;;
38935;SDS011;25541;47.458;9.644;2022-12-11T14:26:31;9.60;;;3.30;;
38935;SDS011;25541;47.458;9.644;2022-12-11T14:28:58;8.02;;;3.55;;
38935;SDS011;25541;47.458;9.644;2022-12-11T14:31:35;13.07;;;3.80;;
38935;SDS011;25541;47.458;9.644;2022-12-11T14:34:14;9.48;;;3.50;;
38935;SDS011;25541;47.458;9.644;2022-12-11T14:36:45;10.15;;;4.57;;
38935;SDS011;25541;47.458;9.644;2022-12-11T14:42:00;8.57;;;3.70;;
38935;SDS011;25541;47.458;9.644;2022-12-11T14:44:32;9.82;;;3.58;;
38935;SDS011;25541;47.458;9.644;2022-12-11T14:47:09;7.20;;;2.92;;
38935;SDS011;25541;47.458;9.644;2022-12-11T14:52:12;7.03;;;2.90;;
38935;SDS011;25541;47.458;9.644;2022-12-11T14:54:47;9.13;;;4.25;;
38935;SDS011;25541;47.458;9.644;2022-12-11T14:57:22;10.20;;;4.28;;
38935;SDS011;25541;47.458;9.644;2022-12-11T14:59:51;10.25;;;4.53;;
38935;SDS011;25541;47.458;9.644;2022-12-11T15:02:26;12.15;;;5.63;;
38935;SDS011;25541;47.458;9.644;2022-12-11T15:07:25;11.45;;;5.28;;
38935;SDS011;25541;47.458;9.644;2022-12-11T15:09:51;12.50;;;5.03;;
38935;SDS011;25541;47.458;9.644;2022-12-11T15:12:17;9.23;;;3.95;;
38935;SDS011;25541;47.458;9.644;2022-12-11T15:17:14;8.50;;;3.60;;
38935;SDS011;25541;47.458;9.644;2022-12-11T15:19:40;7.90;;;3.70;;
38935;SDS011;25541;47.458;9.644;2022-12-11T15:24:39;8.18;;;3.65;;
38935;SDS011;25541;47.458;9.644;2022-12-11T15:27:15;8.70;;;3.25;;
38935;SDS011;25541;47.458;9.644;2022-12-11T15:29:54;8.98;;;3.60;;
38935;SDS011;25541;47.458;9.644;2022-12-11T15:32:20;9.77;;;3.53;;
38935;SDS011;25541;47.458;9.644;2022-12-11T15:34:54;10.02;;;3.53;;
38935;SDS011;25541;47.458;9.644;2022-12-11T15:37:25;8.65;;;3.50;;
38935;SDS011;25541;47.458;9.644;2022-12-11T15:39:56;9.68;;;4.10;;
38935;SDS011;25541;47.458;9.644;2022-12-11T15:44:58;10.35;;;4.78;;
38935;SDS011;25541;47.458;9.644;2022-12-11T15:47:25;9.65;;;4.30;;
38935;SDS011;25541;47.458;9.644;2022-12-11T15:49:53;10.25;;;4.22;;
38935;SDS011;25541;47.458;9.644;2022-12-11T15:52:55;10.23;;;4.07;;
38935;SDS011;25541;47.458;9.644;2022-12-11T15:55:23;11.90;;;4.50;;
38935;SDS011;25541;47.458;9.644;2022-12-11T16:00:18;11.60;;;4.18;;
38935;SDS011;25541;47.458;9.644;2022-12-11T16:02:45;15.50;;;4.00;;
38935;SDS011;25541;47.458;9.644;2022-12-11T16:05:11;9.40;;;3.92;;
38935;SDS011;25541;47.458;9.644;2022-12-11T16:07:38;19.70;;;6.22;;
38935;SDS011;25541;47.458;9.644;2022-12-11T16:10:04;13.05;;;5.65;;
38935;SDS011;25541;47.458;9.644;2022-12-11T16:12:31;20.58;;;7.72;;
38935;SDS011;25541;47.458;9.644;2022-12-11T16:14:57;21.42;;;6.90;;
38935;SDS011;25541;47.458;9.644;2022-12-11T16:17:23;23.42;;;8.93;;
38935;SDS011;25541;47.458;9.644;2022-12-11T16:19:48;10.48;;;4.32;;
38935;SDS011;25541;47.458;9.644;2022-12-11T16:22:15;11.20;;;4.20;;
38935;SDS011;25541;47.458;9.644;2022-12-11T16:24:40;20.13;;;5.43;;
38935;SDS011;25541;47.458;9.644;2022-12-11T16:27:06;14.32;;;5.45;;
38935;SDS011;25541;47.458;9.644;2022-12-11T16:29:36;20.67;;;7.43;;
38935;SDS011;25541;47.458;9.644;2022-12-11T16:32:04;13.80;;;5.78;;
38935;SDS011;25541;47.458;9.644;2022-12-11T16:34:34;15.27;;;6.20;;
38935;SDS011;25541;47.458;9.644;2022-12-11T16:37:01;16.90;;;6.03;;
38935;SDS011;25541;47.458;9.644;2022-12-11T16:39:28;16.13;;;5.90;;
38935;SDS011;25541;47.458;9.644;2022-12-11T16:41:54;19.58;;;7.03;;
38935;SDS011;25541;47.458;9.644;2022-12-11T16:44:20;20.58;;;6.57;;
38935;SDS011;25541;47.458;9.644;2022-12-11T16:46:48;20.90;;;7.35;;
38935;SDS011;25541;47.458;9.644;2022-12-11T16:49:14;21.23;;;7.93;;
38935;SDS011;25541;47.458;9.644;2022-12-11T16:51:40;19.60;;;6.88;;
38935;SDS011;25541;47.458;9.644;2022-12-11T16:54:06;21.52;;;7.07;;
38935;SDS011;25541;47.458;9.644;2022-12-11T16:56:31;33.78;;;11.68;;
38935;SDS011;25541;47.458;9.644;2022-12-11T16:58:59;29.02;;;9.43;;
38935;SDS011;25541;47.458;9.644;2022-12-11T17:01:25;20.83;;;7.63;;
38935;SDS011;25541;47.458;9.644;2022-12-11T17:03:51;18.95;;;6.82;;
38935;SDS011;25541;47.458;9.644;2022-12-11T17:06:17;23.27;;;7.75;;
38935;SDS011;25541;47.458;9.644;2022-12-11T17:08:43;21.02;;;6.70;;
38935;SDS011;25541;47.458;9.644;2022-12-11T17:11:20;27.55;;;8.57;;
38935;SDS011;25541;47.458;9.644;2022-12-11T17:13:47;21.45;;;8.13;;
38935;SDS011;25541;47.458;9.644;2022-12-11T17:16:22;20.33;;;7.20;;
38935;SDS011;25541;47.458;9.644;2022-12-11T17:18:50;43.17;;;13.35;;
38935;SDS011;25541;47.458;9.644;2022-12-11T17:21:17;26.27;;;10.10;;
38935;SDS011;25541;47.458;9.644;2022-12-11T17:23:44;23.55;;;8.65;;
38935;SDS011;25541;47.458;9.644;2022-12-11T17:26:10;21.20;;;7.95;;
38935;SDS011;25541;47.458;9.644;2022-12-11T17:28:36;20.63;;;7.55;;
38935;SDS011;25541;47.458;9.644;2022-12-11T17:31:04;23.13;;;8.05;;
38935;SDS011;25541;47.458;9.644;2022-12-11T17:33:38;21.60;;;8.00;;
38935;SDS011;25541;47.458;9.644;2022-12-11T17:36:04;18.45;;;7.32;;
38935;SDS011;25541;47.458;9.644;2022-12-11T17:38:31;17.05;;;6.72;;
38935;SDS011;25541;47.458;9.644;2022-12-11T17:40:57;16.38;;;6.13;;
38935;SDS011;25541;47.458;9.644;2022-12-11T17:43:23;11.43;;;4.80;;
38935;SDS011;25541;47.458;9.644;2022-12-11T17:45:50;10.77;;;4.55;;
38935;SDS011;25541;47.458;9.644;2022-12-11T17:48:16;15.00;;;5.65;;
38935;SDS011;25541;47.458;9.644;2022-12-11T17:50:44;16.90;;;5.53;;
38935;SDS011;25541;47.458;9.644;2022-12-11T17:53:11;14.70;;;4.97;;
38935;SDS011;25541;47.458;9.644;2022-12-11T17:55:38;15.98;;;5.32;;
38935;SDS011;25541;47.458;9.644;2022-12-11T17:58:26;12.18;;;4.35;;
38935;SDS011;25541;47.458;9.644;2022-12-11T18:00:54;12.32;;;4.32;;
38935;SDS011;25541;47.458;9.644;2022-12-11T18:03:22;10.85;;;3.42;;
38935;SDS011;25541;47.458;9.644;2022-12-11T18:05:50;8.73;;;3.40;;
38935;SDS011;25541;47.458;9.644;2022-12-11T18:08:19;10.48;;;3.50;;
38935;SDS011;25541;47.458;9.644;2022-12-11T18:10:55;10.27;;;3.70;;
38935;SDS011;25541;47.458;9.644;2022-12-11T18:13:27;11.93;;;4.00;;
38935;SDS011;25541;47.458;9.644;2022-12-11T18:16:03;10.05;;;3.90;;
38935;SDS011;25541;47.458;9.644;2022-12-11T18:18:30;14.07;;;5.00;;
38935;SDS011;25541;47.458;9.644;2022-12-11T18:20:55;14.13;;;4.80;;
38935;SDS011;25541;47.458;9.644;2022-12-11T18:23:21;13.82;;;5.65;;
38935;SDS011;25541;47.458;9.644;2022-12-11T18:25:47;11.52;;;4.82;;
38935;SDS011;25541;47.458;9.644;2022-12-11T18:28:13;11.02;;;4.07;;
38935;SDS011;25541;47.458;9.644;2022-12-11T18:30:38;14.60;;;4.70;;
38935;SDS011;25541;47.458;9.644;2022-12-11T18:33:04;11.70;;;4.25;;
38935;SDS011;25541;47.458;9.644;2022-12-11T18:35:30;13.38;;;4.13;;
38935;SDS011;25541;47.458;9.644;2022-12-11T18:37:56;13.93;;;4.80;;
38935;SDS011;25541;47.458;9.644;2022-12-11T18:40:21;12.48;;;3.95;;
38935;SDS011;25541;47.458;9.644;2022-12-11T18:42:47;13.88;;;4.75;;
38935;SDS011;25541;47.458;9.644;2022-12-11T18:45:13;13.07;;;4.85;;
38935;SDS011;25541;47.458;9.644;2022-12-11T18:47:38;11.82;;;4.40;;
38935;SDS011;25541;47.458;9.644;2022-12-11T18:50:04;13.30;;;5.45;;
38935;SDS011;25541;47.458;9.644;2022-12-11T18:52:30;14.32;;;5.72;;
38935;SDS011;25541;47.458;9.644;2022-12-11T18:54:55;12.18;;;5.35;;
38935;SDS011;25541;47.458;9.644;2022-12-11T18:57:21;15.70;;;5.88;;
38935;SDS011;25541;47.458;9.644;2022-12-11T18:59:50;20.13;;;6.93;;
38935;SDS011;25541;47.458;9.644;2022-12-11T19:02:17;20.40;;;7.63;;
38935;SDS011;25541;47.458;9.644;2022-12-11T19:04:44;16.35;;;6.15;;
38935;SDS011;25541;47.458;9.644;2022-12-11T19:07:09;15.63;;;5.82;;
38935;SDS011;25541;47.458;9.644;2022-12-11T19:09:35;14.82;;;5.95;;
38935;SDS011;25541;47.458;9.644;2022-12-11T19:12:01;14.77;;;5.55;;
38935;SDS011;25541;47.458;9.644;2022-12-11T19:14:27;16.80;;;6.13;;
38935;SDS011;25541;47.458;9.644;2022-12-11T19:16:52;17.50;;;6.30;;
38935;SDS011;25541;47.458;9.644;2022-12-11T19:19:19;21.58;;;7.35;;
38935;SDS011;25541;47.458;9.644;2022-12-11T19:21:46;20.33;;;7.50;;
38935;SDS011;25541;47.458;9.644;2022-12-11T19:24:20;20.98;;;7.18;;
38935;SDS011;25541;47.458;9.644;2022-12-11T19:26:47;17.02;;;6.00;;
38935;SDS011;25541;47.458;9.644;2022-12-11T19:29:16;16.42;;;5.93;;
38935;SDS011;25541;47.458;9.644;2022-12-11T19:31:47;15.23;;;5.88;;
38935;SDS011;25541;47.458;9.644;2022-12-11T19:34:13;16.02;;;5.53;;
38935;SDS011;25541;47.458;9.644;2022-12-11T19:36:39;17.40;;;5.95;;
38935;SDS011;25541;47.458;9.644;2022-12-11T19:39:05;15.98;;;6.07;;
38935;SDS011;25541;47.458;9.644;2022-12-11T19:41:31;14.98;;;5.07;;
38935;SDS011;25541;47.458;9.644;2022-12-11T19:43:57;15.02;;;5.10;;
38935;SDS011;25541;47.458;9.644;2022-12-11T19:46:23;13.63;;;4.57;;
38935;SDS011;25541;47.458;9.644;2022-12-11T19:48:51;11.10;;;4.15;;
38935;SDS011;25541;47.458;9.644;2022-12-11T19:51:25;13.15;;;4.10;;
38935;SDS011;25541;47.458;9.644;2022-12-11T19:54:06;12.50;;;4.57;;
38935;SDS011;25541;47.458;9.644;2022-12-11T19:56:33;11.00;;;4.32;;
38935;SDS011;25541;47.458;9.644;2022-12-11T19:59:03;14.63;;;4.30;;
38935;SDS011;25541;47.458;9.644;2022-12-11T20:01:32;9.18;;;3.92;;
38935;SDS011;25541;47.458;9.644;2022-12-11T20:03:59;12.45;;;4.32;;
38935;SDS011;25541;47.458;9.644;2022-12-11T20:06:27;9.95;;;3.78;;
38935;SDS011;25541;47.458;9.644;2022-12-11T20:08:55;13.90;;;4.10;;
38935;SDS011;25541;47.458;9.644;2022-12-11T20:11:22;10.93;;;3.88;;
38935;SDS011;25541;47.458;9.644;2022-12-11T20:13:48;11.60;;;4.22;;
38935;SDS011;25541;47.458;9.644;2022-12-11T20:16:15;10.75;;;3.92;;
38935;SDS011;25541;47.458;9.644;2022-12-11T20:18:42;11.98;;;4.07;;
38935;SDS011;25541;47.458;9.644;2022-12-11T20:21:10;14.65;;;4.35;;
38935;SDS011;25541;47.458;9.644;2022-12-11T20:23:38;9.82;;;3.85;;
38935;SDS011;25541;47.458;9.644;2022-12-11T20:26:05;11.18;;;4.18;;
38935;SDS011;25541;47.458;9.644;2022-12-11T20:28:32;11.70;;;4.20;;
38935;SDS011;25541;47.458;9.644;2022-12-11T20:31:04;10.55;;;4.07;;
38935;SDS011;25541;47.458;9.644;2022-12-11T20:33:31;11.32;;;4.03;;
38935;SDS011;25541;47.458;9.644;2022-12-11T20:35:57;11.45;;;4.18;;
38935;SDS011;25541;47.458;9.644;2022-12-11T20:38:23;12.05;;;3.85;;
38935;SDS011;25541;47.458;9.644;2022-12-11T20:40:48;9.48;;;3.42;;
38935;SDS011;25541;47.458;9.644;2022-12-11T20:43:14;12.77;;;3.88;;
38935;SDS011;25541;47.458;9.644;2022-12-11T20:45:45;12.80;;;4.13;;
38935;SDS011;25541;47.458;9.644;2022-12-11T20:48:14;10.93;;;3.95;;
38935;SDS011;25541;47.458;9.644;2022-12-11T20:50:40;9.98;;;3.80;;
38935;SDS011;25541;47.458;9.644;2022-12-11T20:53:06;10.77;;;3.97;;
38935;SDS011;25541;47.458;9.644;2022-12-11T20:55:32;13.73;;;3.90;;
38935;SDS011;25541;47.458;9.644;2022-12-11T20:57:58;11.02;;;3.70;;
38935;SDS011;25541;47.458;9.644;2022-12-11T21:00:23;11.35;;;3.58;;
38935;SDS011;25541;47.458;9.644;2022-12-11T21:02:50;11.07;;;3.33;;
38935;SDS011;25541;47.458;9.644;2022-12-11T21:05:16;6.97;;;2.55;;
38935;SDS011;25541;47.458;9.644;2022-12-11T21:07:42;8.23;;;2.85;;
38935;SDS011;25541;47.458;9.644;2022-12-11T21:10:08;8.30;;;2.60;;
38935;SDS011;25541;47.458;9.644;2022-12-11T21:12:33;6.78;;;2.13;;
38935;SDS011;25541;47.458;9.644;2022-12-11T21:14:59;7.47;;;2.20;;
38935;SDS011;25541;47.458;9.644;2022-12-11T21:17:25;7.80;;;2.22;;
38935;SDS011;25541;47.458;9.644;2022-12-11T21:19:50;6.07;;;2.05;;
38935;SDS011;25541;47.458;9.644;2022-12-11T21:22:16;7.35;;;2.05;;
38935;SDS011;25541;47.458;9.644;2022-12-11T21:24:42;6.50;;;2.05;;
38935;SDS011;25541;47.458;9.644;2022-12-11T21:27:08;5.68;;;1.85;;
38935;SDS011;25541;47.458;9.644;2022-12-11T21:29:33;6.95;;;2.00;;
38935;SDS011;25541;47.458;9.644;2022-12-11T21:31:59;6.93;;;2.22;;
38935;SDS011;25541;47.458;9.644;2022-12-11T21:34:25;7.30;;;2.55;;